Greenville, WI (54942)

1:45 PM CST on February 28, 2015 (GMT -0600)
East End, School Road | Change Station
CLOSE
Current Station
Personal Weather Station
Location: Greenville, WI
Elevation: 880 ft
Nearby Weather Stations

Elev 880 ft 44.29 °N, 88.52 °W | Updated 11 seconds ago

Partly Cloudy
Partly Cloudy
18.3 °F
Feels Like 9 °F
N
7.0
Wind Variable Wind from South
Gusts 13.0 mph

Today
High -- | Low -- °F
--% Chance of Precip.
Yesterday
High -- | Low -- °F
Precip. -- in
6:33 AM 5:40 PM
Waxing Gibbous, 79% visible
Pressure 30.58 in
Visibility 10.0 miles
Clouds Scattered Clouds 12000 ft
Windchill 9 °F
Dew Point 4 °F
Humidity 52%
Rainfall 0.00 in
Snow Depth Not available.
UV 4 out of 12
Pollen .30 out of 12
Air Quality Not available.
Flu Activity Not available.
METAR KATW 281845Z 19007KT 10SM SCT120 M08/M18 A3058

More Conditions Fewer Conditions

Pressure 30.58 in
Visibility 10.0 miles
Clouds Scattered Clouds 12000 ft
Windchill 9 °F
Dew Point 4 °F
Humidity 52%
Rainfall 0.00 in
Snow Depth Not available.
UV 4 out of 12
Pollen .30 out of 12
Air Quality Not available.
Flu Activity Not available.
METAR KATW 281845Z 19007KT 10SM SCT120 M08/M18 A3058

More Conditions Fewer Conditions

10-Day Weather Forecast

Almanac

Astronomy

Feb. 28, 2015 Rise Set
Actual Time
Civil Twilight
Nautical Twilight
Astronomical Twilight
Moon
Length of Visible Light
Length of Day
Tomorrow will be .
, % of the Moon is Illuminated

Today's Extremes

State Highs State Lows

Community

WunderPhotos

Upload Photos

1,801,125 photos uploaded!

WunderBlogs® & News

Nearby

Air Quality

  Air Quality AQ Index Pollutant
Not available.

Snow Depth

Station Depth Elevation

Earthquake Activity

City Distance Mag. Time & Date
Minimum magnitude displayed is 2.5.

Coastal Water Temperatures

Place Temperature

Nearby Weather Stations